+1 323 6077732
operaciones@atlanticgroupva.com
METAR AND TAF INFORMATION
METAR FOR SKMD
ADDS - METARS form results

(2331 UTC 23 January 2020)
Data provider http://aviationweather.gov/metar/data/
 
METAR text: SKMD 232300Z 02008KT 9999 VCSH SCT035TCU BKN100 23/15 A3007 RMK TCU VCSH/E/SE/SW
Conditions at: SKMD (MEDELLIN/OLAYA H, CO) observed 2300 UTC 23 January 2020
Temperature: 23.0°C (73°F)
Dewpoint: 15.0°C (59°F) [RH = 61%]
Pressure (altimeter): 30.07 inches Hg (1018.4 mb)
Winds: from the NNE (20 degrees) at 9 MPH (8 knots; 4.1 m/s)
Visibility: 6 or more miles (10+ km)
Ceiling: 10000 feet AGL
Clouds: scattered clouds at 3500 feet AGL
broken clouds at 10000 feet AGL
Weather: VCSH  (showers in vicinity)

AIRPORT MAP
AIRPORT MAP
Runway 02 Runway length 8202 ft Runway width 125 ft
Runway elevation 4915 ft Runway displaced threshold 1312 ft Runway heading 16
Runway 20 Runway length 8202 ft Runway width 125 ft
Runway elevation 4921 ft Runway displaced threshold 984 ft Runway heading 196

AIRPORT FREQUENCIES

AIRPORT NEAR NAVIGATION AIDS